Terminal Aerodrome Forecast
Issued by NWS

Current Version | Previous Version | Graphics & Text | Print | Product List | Glossary On
Versions: 1 2 3 4 5 6 7 8 9 10 11 12 13 14 15 16 17 18 19 20 21 22 23 24 25 26 27 28 29
000
FTUS41 KPBZ 152044 AAA
TAFHLG
TAF AMD
KHLG 152044Z 1521/1618 23008KT 3SM -RA BR SCT011 BKN017 OVC035
      TEMPO 1521/1522 1/2SM +RA OVC010
     FM152200 24010KT 5SM -RA OVC015
     FM160400 24010KT 2SM RA BR OVC008
     FM161000 29011G19KT 6SM -RA OVC015
     FM161500 31013G23KT P6SM OVC025=

USA.gov is the U.S. government's official web portal to all federal, state and local government web resources and services.